createdAt,value
2023-03-23T15:59:29.946Z,12.39
2023-03-23T16:02:34.080Z,12.35
2023-03-23T16:05:36.839Z,12.32
2023-03-23T16:08:40.976Z,12.29
2023-03-23T16:11:44.426Z,12.10
2023-03-23T16:14:48.436Z,12.08
2023-03-23T16:17:51.064Z,12.09
2023-03-23T16:20:53.668Z,11.95
2023-03-23T16:23:57.752Z,11.93
2023-03-23T16:27:00.427Z,11.92
2023-03-23T16:30:14.471Z,11.94
2023-03-23T16:33:17.095Z,11.95
2023-03-23T16:36:19.736Z,11.95
2023-03-23T16:39:23.287Z,11.78
2023-03-23T16:42:25.923Z,11.88
2023-03-23T16:45:30.134Z,11.86
2023-03-23T16:48:32.743Z,11.62
2023-03-23T16:51:35.395Z,11.14
2023-03-23T16:54:38.181Z,11.09
2023-03-23T16:57:42.051Z,10.88
2023-03-23T17:00:49.291Z,11.11
2023-03-23T17:03:52.030Z,11.24
2023-03-23T17:06:54.750Z,11.20
2023-03-23T17:09:57.378Z,11.37
2023-03-23T17:13:00.915Z,11.35
2023-03-23T17:16:05.693Z,11.33
2023-03-23T17:19:08.312Z,11.32
2023-03-23T17:22:10.884Z,11.33
2023-03-23T17:25:13.501Z,11.25
2023-03-23T17:28:17.970Z,11.22
2023-03-23T17:31:23.505Z,11.24
2023-03-23T17:34:26.353Z,11.25
2023-03-23T17:37:29.162Z,11.31
2023-03-23T17:40:32.083Z,11.32
2023-03-23T17:43:36.109Z,11.31
2023-03-23T17:46:40.198Z,11.33
2023-03-23T17:49:42.828Z,11.21
2023-03-23T17:52:45.450Z,11.15
2023-03-23T17:55:48.057Z,11.07
2023-03-23T17:58:50.684Z,10.98
2023-03-23T18:01:54.733Z,11.12
2023-03-23T18:04:59.504Z,11.09
2023-03-23T18:08:02.135Z,10.77
2023-03-23T18:11:05.136Z,10.80
2023-03-23T18:14:07.818Z,10.79
2023-03-23T18:17:11.899Z,10.83
2023-03-23T18:20:15.030Z,10.90
2023-03-23T18:23:17.595Z,10.81
2023-03-23T18:26:21.762Z,10.89
2023-03-23T18:29:24.359Z,10.72
2023-03-23T18:32:28.660Z,10.87
2023-03-23T18:35:31.502Z,10.86
2023-03-23T18:38:34.430Z,10.66
2023-03-23T18:41:37.160Z,10.95
2023-03-23T18:44:40.022Z,10.84
2023-03-23T18:47:43.979Z,10.71
2023-03-23T18:50:48.482Z,10.78
2023-03-23T18:53:51.129Z,10.57
2023-03-23T18:56:53.854Z,10.73
2023-03-23T18:59:56.569Z,10.93
2023-03-23T19:03:00.759Z,10.76
2023-03-23T19:06:04.418Z,10.78
2023-03-23T19:09:07.180Z,10.85
2023-03-23T19:12:10.461Z,10.67
2023-03-23T19:15:13.054Z,10.83
2023-03-23T19:18:17.039Z,10.72
2023-03-23T19:21:22.152Z,10.41
2023-03-23T19:24:30.145Z,10.61
2023-03-23T19:27:32.759Z,10.79
2023-03-23T19:30:36.395Z,10.73
2023-03-23T19:33:40.350Z,10.73
2023-03-23T19:36:48.151Z,10.65
2023-03-23T19:39:56.319Z,10.68
2023-03-23T19:42:58.946Z,10.77
2023-03-23T19:46:01.569Z,10.78
2023-03-23T19:49:06.131Z,10.82
2023-03-23T19:52:12.410Z,10.74
2023-03-23T19:55:15.443Z,10.51
2023-03-23T19:58:18.039Z,10.75
2023-03-23T20:01:21.141Z,10.62
2023-03-23T20:04:25.680Z,10.76
2023-03-23T20:07:28.319Z,10.75
2023-03-23T20:10:34.321Z,10.60
2023-03-23T20:13:37.166Z,10.64
2023-03-23T20:16:39.734Z,10.66
2023-03-23T20:19:44.710Z,10.62
2023-03-23T20:22:48.520Z,10.72
2023-03-23T20:25:52.673Z,10.81
2023-03-23T20:28:55.687Z,10.84
2023-03-23T20:31:59.205Z,10.88
2023-03-23T20:35:06.350Z,10.75
2023-03-23T20:38:09.691Z,10.84
2023-03-23T20:41:12.792Z,10.83
2023-03-23T20:44:16.194Z,10.88
2023-03-23T20:47:18.835Z,10.66
2023-03-23T20:50:22.801Z,10.66
2023-03-23T20:53:28.524Z,10.65
2023-03-23T20:56:31.397Z,10.60
2023-03-23T20:59:34.011Z,10.62
2023-03-23T21:02:36.650Z,10.81
2023-03-23T21:05:42.399Z,10.89
2023-03-23T21:08:45.088Z,10.78
2023-03-23T21:11:48.543Z,10.67
2023-03-23T21:14:51.486Z,10.71
2023-03-23T21:17:54.133Z,10.72
2023-03-23T21:20:58.253Z,10.87
2023-03-23T21:24:01.077Z,10.79
2023-03-23T21:27:03.691Z,10.72
2023-03-23T21:30:07.420Z,10.68
2023-03-23T21:33:10.181Z,10.82
2023-03-23T21:36:14.142Z,10.94
2023-03-23T21:39:17.291Z,10.84
2023-03-23T21:42:20.951Z,10.99
2023-03-23T21:45:25.488Z,10.97
2023-03-23T21:48:28.534Z,10.94
2023-03-23T21:51:34.272Z,10.80
2023-03-23T21:54:36.892Z,10.69
2023-03-23T21:57:40.540Z,10.49
2023-03-23T22:00:44.353Z,10.65
2023-03-23T22:03:48.376Z,10.76
2023-03-23T22:06:52.607Z,10.97
2023-03-23T22:09:55.574Z,10.85
2023-03-23T22:12:58.438Z,11.08
2023-03-23T22:16:03.569Z,11.14
2023-03-23T22:19:06.513Z,11.08
2023-03-23T22:22:10.666Z,11.17
2023-03-23T22:25:13.588Z,10.83
2023-03-23T22:28:16.650Z,11.00
2023-03-23T22:31:24.026Z,11.15
2023-03-23T22:34:27.141Z,11.28
2023-03-23T22:37:31.336Z,11.02
2023-03-23T22:40:34.127Z,11.29
2023-03-23T22:43:37.914Z,11.26
2023-03-23T22:46:41.214Z,11.35
2023-03-23T22:49:44.291Z,11.44
2023-03-23T22:52:48.643Z,11.39
2023-03-23T22:55:54.081Z,11.34
2023-03-23T22:58:58.857Z,11.40
2023-03-23T23:02:01.667Z,11.41
2023-03-23T23:05:04.501Z,11.47
2023-03-23T23:08:12.262Z,11.17
2023-03-23T23:11:17.274Z,11.41
2023-03-23T23:14:20.074Z,11.40
2023-03-23T23:17:22.804Z,11.44
2023-03-23T23:20:25.651Z,11.47
2023-03-23T23:23:30.182Z,11.57
2023-03-23T23:26:32.978Z,11.28
2023-03-23T23:29:35.814Z,11.43
2023-03-23T23:32:38.688Z,11.32
2023-03-23T23:35:42.483Z,11.41
2023-03-23T23:38:46.723Z,11.48
2023-03-23T23:41:49.441Z,11.50
2023-03-23T23:44:52.297Z,11.48
2023-03-23T23:47:55.140Z,11.55
2023-03-23T23:50:58.079Z,11.50
2023-03-23T23:54:02.293Z,11.40
2023-03-23T23:57:06.221Z,11.55
